Malone, FL

9:47 PM CDT on August 29, 2014 (GMT -0500)
Marianna Municipal | Change Station
CLOSE
Current Station
Airport
Location: Marianna,
Elevation: 112 ft
Nearby Weather Stations

Elev 112 ft 30.84 °N, 85.18 °W | Updated 54 minutes ago

Scattered Clouds
Scattered Clouds
77 °F
Feels Like 77 °F
N
7
Wind Variable Wind from South

Today
High -- | Low -- °F
--% Chance of Precip.
Yesterday
High -- | Low -- °F
Precip. -- in
6:15 AM 7:07 PM
Waxing Crescent, 18% visible
Pressure 30.06 in
Visibility 10.0 miles
Clouds Few 7500 ft
Scattered Clouds 11000 ft
Dew Point 77 °F
Humidity 100%
Rainfall 0.28 in
Snow Depth Not available.
UV 0 out of 12
Pollen 6.60 out of 12
Air Quality Not available.
Flu Activity Not available.
METAR KMAI 300153Z AUTO 17006KT 10SM FEW075 SCT110 25/25 A3006 RMK AO2 SLP177 T02500250

More Conditions Fewer Conditions

Pressure 30.06 in
Visibility 10.0 miles
Clouds Few 7500 ft
Scattered Clouds 11000 ft
Dew Point 77 °F
Humidity 100%
Rainfall 0.28 in
Snow Depth Not available.
UV 0 out of 12
Pollen 6.60 out of 12
Air Quality Not available.
Flu Activity Not available.
METAR KMAI 300153Z AUTO 17006KT 10SM FEW075 SCT110 25/25 A3006 RMK AO2 SLP177 T02500250

More Conditions Fewer Conditions

10-Day Weather Forecast

Almanac

Astronomy

Aug. 29, 2014 Rise Set
Actual Time 6:15 AM CDT 7:07 PM CDT
Civil Twilight 5:50 AM CDT 7:32 PM CDT
Nautical Twilight 5:21 AM CDT 8:01 PM CDT
Astronomical Twilight 4:51 AM CDT 8:31 PM CDT
Moon 9:46 AM CDT (8/29) 9:23 PM CDT (8/29)
Length of Visible Light 13h 41m
Length of Day
12h 52m
Tomorrow will be 1m 47s shorter.
Waxing Crescent, 18% of the Moon is Illuminated
Today
Waxing Crescent
Sep 2
First Quarter
Sep 8
Full
Sep 15
Last Quarter
Sep 24
New

Today's Extremes

State Highs State Lows

Community

WunderPhotos

Upload Photos

1,748,421 photos uploaded!

Nearby

Snow Depth

Station Depth Elevation
No new snow has been reported.

Earthquake Activity

City Distance Mag. Time & Date
No recent earthquake activity has been reported nearby.
Minimum magnitude displayed is 2.5.

Coastal Water Temperatures

Place Temperature
No Stations Reporting

Nearby Weather Stations